Time;durP1;ratioP1;P1;durP2;ratioP2;P2;SDS_P1;SDS_P2;PMS_P1;PMS_P2;Temp;Humidity;BMP_temperature;BMP_pressure;BME280_temperature;BME280_humidity;BME280_pressure;Samples;Min_cycle;Max_cycle;Signal;HPM_P1;HPM_P2
2022/11/17 00:00:25;;;;;;;0.45;0.45;;;;;;;;;;5096658;28;20031;-71
2022/11/17 00:02:52;;;;;;;0.10;0.10;;;;;;;;;;5094440;28;20479;-72
2022/11/17 00:05:18;;;;;;;0.30;0.30;;;;;;;;;;5073964;28;20070;-71
2022/11/17 00:07:45;;;;;;;0.10;0.10;;;;;;;;;;5091660;28;20489;-72
2022/11/17 00:10:12;;;;;;;0.40;0.40;;;;;;;;;;5092108;28;20597;-71
2022/11/17 00:15:41;;;;;;;1.17;1.13;;;;;;;;;;5089565;28;20032;-72
2022/11/17 00:23:45;;;;;;;0.10;0.10;;;;;;;;;;5090210;28;20031;-74
2022/11/17 00:26:13;;;;;;;0.10;0.10;;;;;;;;;;5090229;28;20058;-73
2022/11/17 00:28:39;;;;;;;2.65;2.55;;;;;;;;;;5094259;28;20108;-74
2022/11/17 00:34:10;;;;;;;0.17;0.17;;;;;;;;;;5112600;28;20508;-72
2022/11/17 00:36:38;;;;;;;0.20;0.20;;;;;;;;;;5114658;28;20150;-71
2022/11/17 00:39:04;;;;;;;0.10;0.10;;;;;;;;;;5114974;28;20498;-71
2022/11/17 00:41:30;;;;;;;0.40;0.40;;;;;;;;;;5114995;28;20034;-71
2022/11/17 00:43:56;;;;;;;0.10;0.10;;;;;;;;;;5113770;28;20027;-73
2022/11/17 00:46:22;;;;;;;0.10;0.10;;;;;;;;;;5114825;28;20031;-73
2022/11/17 00:48:48;;;;;;;0.45;0.45;;;;;;;;;;5112841;28;20023;-72
2022/11/17 00:51:13;;;;;;;0.10;0.10;;;;;;;;;;5114293;28;20084;-73
2022/11/17 00:53:39;;;;;;;0.30;0.30;;;;;;;;;;5107750;28;20032;-73
2022/11/17 00:56:05;;;;;;;0.10;0.10;;;;;;;;;;5094470;28;20028;-72
2022/11/17 00:58:34;;;;;;;0.10;0.10;;;;;;;;;;5094313;28;20490;-73
2022/11/17 01:01:00;;;;;;;0.10;0.10;;;;;;;;;;5098091;28;20479;-72
2022/11/17 01:03:26;;;;;;;0.25;0.25;;;;;;;;;;5114411;28;20487;-70
2022/11/17 01:05:52;;;;;;;0.13;0.13;;;;;;;;;;5114532;28;20038;-71
2022/11/17 01:08:18;;;;;;;0.28;0.28;;;;;;;;;;5114923;28;20023;-71
2022/11/17 01:10:44;;;;;;;0.10;0.10;;;;;;;;;;5113628;28;20030;-71
2022/11/17 01:13:10;;;;;;;0.40;0.40;;;;;;;;;;5114382;28;20099;-71
2022/11/17 01:15:35;;;;;;;0.10;0.10;;;;;;;;;;5114560;28;20023;-71
2022/11/17 01:18:01;;;;;;;0.90;0.90;;;;;;;;;;5114136;28;20544;-71
2022/11/17 01:20:27;;;;;;;0.40;0.40;;;;;;;;;;5095261;28;20036;-71
2022/11/17 01:22:53;;;;;;;0.65;0.65;;;;;;;;;;5093861;28;20032;-71
2022/11/17 01:25:19;;;;;;;0.10;0.10;;;;;;;;;;5094069;28;20031;-73
2022/11/17 01:27:46;;;;;;;2.83;2.63;;;;;;;;;;5093928;28;20028;-71
2022/11/17 01:30:13;;;;;;;0.50;0.50;;;;;;;;;;5092467;28;20081;-72
2022/11/17 01:32:39;;;;;;;0.10;0.10;;;;;;;;;;5092225;28;20032;-71
2022/11/17 01:35:05;;;;;;;2.88;2.67;;;;;;;;;;5092571;28;20425;-72
2022/11/17 01:37:32;;;;;;;1.50;1.45;;;;;;;;;;5093429;28;20131;-71
2022/11/17 01:39:58;;;;;;;0.40;0.40;;;;;;;;;;5093666;28;20107;-71
2022/11/17 01:42:25;;;;;;;0.10;0.10;;;;;;;;;;5093930;28;20031;-73
2022/11/17 01:44:52;;;;;;;0.10;0.10;;;;;;;;;;5093478;28;20032;-72
2022/11/17 01:47:25;;;;;;;0.10;0.10;;;;;;;;;;5093673;28;20062;-72
2022/11/17 01:49:55;;;;;;;0.10;0.10;;;;;;;;;;5093406;28;20066;-72
2022/11/17 01:52:21;;;;;;;0.10;0.10;;;;;;;;;;5092418;28;20035;-73
2022/11/17 01:54:48;;;;;;;0.47;0.47;;;;;;;;;;5093504;28;20035;-72
2022/11/17 01:57:18;;;;;;;0.17;0.17;;;;;;;;;;5093443;28;20035;-71
2022/11/17 01:59:59;;;;;;;0.73;0.73;;;;;;;;;;5093189;28;20031;-71
2022/11/17 02:02:25;;;;;;;0.20;0.20;;;;;;;;;;5093645;28;20028;-72
2022/11/17 02:05:01;;;;;;;0.10;0.10;;;;;;;;;;5092489;28;20040;-72
2022/11/17 02:07:28;;;;;;;0.10;0.10;;;;;;;;;;5093321;28;20028;-72
2022/11/17 02:09:55;;;;;;;0.10;0.10;;;;;;;;;;5093260;28;20024;-72
2022/11/17 02:12:23;;;;;;;0.10;0.10;;;;;;;;;;5093268;28;20016;-72
2022/11/17 02:14:49;;;;;;;0.10;0.10;;;;;;;;;;5093316;28;20393;-74
2022/11/17 02:17:16;;;;;;;0.45;0.45;;;;;;;;;;5075285;28;20028;-72
2022/11/17 02:19:42;;;;;;;0.10;0.10;;;;;;;;;;5092322;28;20475;-72
2022/11/17 02:22:25;;;;;;;0.20;0.20;;;;;;;;;;5094223;28;20028;-72
2022/11/17 02:24:57;;;;;;;0.10;0.10;;;;;;;;;;5097472;28;20024;-73
2022/11/17 02:27:25;;;;;;;0.10;0.10;;;;;;;;;;5097495;28;20089;-73
2022/11/17 02:29:54;;;;;;;0.10;0.10;;;;;;;;;;5096081;28;20467;-73
2022/11/17 02:32:37;;;;;;;0.10;0.10;;;;;;;;;;5097414;28;20383;-73
2022/11/17 02:35:18;;;;;;;0.35;0.35;;;;;;;;;;5097053;28;20043;-74
2022/11/17 02:37:50;;;;;;;0.10;0.10;;;;;;;;;;5097054;28;20036;-72
2022/11/17 02:40:33;;;;;;;3.75;3.22;;;;;;;;;;5097159;28;20028;-72
2022/11/17 02:46:14;;;;;;;0.10;0.10;;;;;;;;;;5096934;28;20032;-72
2022/11/17 02:48:44;;;;;;;0.10;0.10;;;;;;;;;;5097023;28;20051;-71
2022/11/17 02:51:12;;;;;;;0.20;0.20;;;;;;;;;;5096920;28;20062;-72
2022/11/17 02:53:38;;;;;;;0.25;0.25;;;;;;;;;;5098090;28;20052;-71
2022/11/17 02:56:06;;;;;;;0.10;0.10;;;;;;;;;;5101199;28;20058;-72
2022/11/17 02:58:31;;;;;;;0.10;0.10;;;;;;;;;;5100880;28;20101;-71
2022/11/17 03:01:00;;;;;;;0.10;0.10;;;;;;;;;;5103955;28;20459;-72
2022/11/17 03:03:45;;;;;;;0.13;0.13;;;;;;;;;;5109820;28;20023;-71
2022/11/17 03:06:20;;;;;;;0.10;0.10;;;;;;;;;;5117551;28;20032;-72
2022/11/17 03:08:46;;;;;;;1.73;1.63;;;;;;;;;;5117177;28;20097;-72
2022/11/17 03:11:12;;;;;;;0.10;0.10;;;;;;;;;;5117095;28;20031;-72
2022/11/17 03:13:49;;;;;;;0.90;0.90;;;;;;;;;;5116779;28;20108;-72
2022/11/17 03:16:14;;;;;;;0.10;0.10;;;;;;;;;;5099202;28;20459;-71
2022/11/17 03:18:55;;;;;;;0.20;0.20;;;;;;;;;;5116777;28;20031;-71
2022/11/17 03:21:21;;;;;;;0.10;0.10;;;;;;;;;;5111717;28;20032;-71
2022/11/17 03:23:54;;;;;;;0.10;0.10;;;;;;;;;;5096209;28;20023;-72
2022/11/17 03:26:25;;;;;;;0.20;0.20;;;;;;;;;;5096269;28;20515;-72
2022/11/17 03:28:51;;;;;;;0.13;0.13;;;;;;;;;;5095381;28;20103;-72
2022/11/17 03:31:18;;;;;;;0.10;0.10;;;;;;;;;;5096571;28;20023;-72
2022/11/17 03:33:46;;;;;;;0.10;0.10;;;;;;;;;;5094684;28;20047;-72
2022/11/17 03:36:13;;;;;;;0.10;0.10;;;;;;;;;;5096335;28;20020;-72
2022/11/17 03:38:49;;;;;;;0.10;0.10;;;;;;;;;;5094748;28;20470;-72
2022/11/17 03:41:16;;;;;;;0.10;0.10;;;;;;;;;;5096161;28;20024;-74
2022/11/17 03:43:44;;;;;;;0.10;0.10;;;;;;;;;;5096097;28;20036;-74
2022/11/17 03:46:13;;;;;;;0.00;0.00;;;;;;;;;;5095548;28;20020;-74
2022/11/17 03:48:54;;;;;;;0.15;0.15;;;;;;;;;;5105439;28;20039;-73
2022/11/17 03:51:23;;;;;;;0.10;0.10;;;;;;;;;;5095643;28;20057;-72
2022/11/17 03:53:49;;;;;;;0.10;0.10;;;;;;;;;;5095689;28;20429;-73
2022/11/17 03:56:19;;;;;;;0.10;0.10;;;;;;;;;;5096024;28;20024;-72
2022/11/17 03:59:00;;;;;;;0.10;0.10;;;;;;;;;;5095317;28;20020;-72
2022/11/17 04:01:27;;;;;;;0.10;0.10;;;;;;;;;;5095646;28;20051;-71
2022/11/17 04:03:54;;;;;;;0.10;0.10;;;;;;;;;;5091270;27;20103;-72
2022/11/17 04:06:19;;;;;;;0.10;0.10;;;;;;;;;;5091719;28;20043;-72
2022/11/17 04:08:45;;;;;;;0.10;0.10;;;;;;;;;;5091296;28;20063;-72
2022/11/17 04:16:40;;;;;;;0.10;0.10;;;;;;;;;;5091319;28;20020;-73
2022/11/17 04:19:06;;;;;;;0.40;0.40;;;;;;;;;;5091049;28;20043;-72
2022/11/17 04:21:32;;;;;;;0.15;0.15;;;;;;;;;;5091211;28;20028;-72
2022/11/17 04:23:58;;;;;;;0.10;0.10;;;;;;;;;;5091156;28;20396;-71
2022/11/17 04:29:08;;;;;;;3.33;3.13;;;;;;;;;;5091337;28;20103;-71
2022/11/17 04:31:34;;;;;;;0.45;0.43;;;;;;;;;;5091170;28;20051;-72
2022/11/17 04:34:02;;;;;;;0.10;0.10;;;;;;;;;;5110257;28;20051;-71
2022/11/17 04:36:29;;;;;;;0.10;0.10;;;;;;;;;;5111421;28;20027;-71
2022/11/17 04:38:57;;;;;;;0.10;0.10;;;;;;;;;;5110925;28;20035;-71
2022/11/17 04:44:09;;;;;;;0.10;0.10;;;;;;;;;;5111248;28;20482;-73
2022/11/17 04:46:36;;;;;;;0.68;0.68;;;;;;;;;;5109979;28;20023;-73
2022/11/17 04:49:01;;;;;;;0.05;0.05;;;;;;;;;;5110848;28;20037;-71
2022/11/17 04:51:28;;;;;;;0.82;0.82;;;;;;;;;;5110024;28;20023;-73
2022/11/17 04:53:55;;;;;;;0.10;0.10;;;;;;;;;;5109699;28;20055;-73
2022/11/17 04:56:21;;;;;;;0.10;0.10;;;;;;;;;;5111010;28;20062;-71
2022/11/17 04:58:47;;;;;;;0.10;0.10;;;;;;;;;;5110751;28;20035;-76
2022/11/17 05:01:13;;;;;;;0.10;0.10;;;;;;;;;;5101639;28;20031;-72
2022/11/17 05:03:42;;;;;;;0.10;0.10;;;;;;;;;;5090275;28;20032;-72
2022/11/17 05:06:09;;;;;;;0.10;0.10;;;;;;;;;;5091123;28;20020;-72
2022/11/17 05:08:36;;;;;;;0.30;0.30;;;;;;;;;;5089227;28;20039;-73
2022/11/17 05:13:49;;;;;;;0.15;0.15;;;;;;;;;;5097082;28;20024;-73
2022/11/17 05:19:00;;;;;;;2.90;2.72;;;;;;;;;;5089863;28;20040;-72
2022/11/17 05:21:26;;;;;;;0.85;0.85;;;;;;;;;;5089009;28;20023;-73
2022/11/17 05:23:54;;;;;;;0.10;0.10;;;;;;;;;;5090257;28;20062;-71
2022/11/17 05:26:24;;;;;;;0.20;0.20;;;;;;;;;;5088768;28;20391;-71
2022/11/17 05:28:50;;;;;;;0.10;0.10;;;;;;;;;;5088301;28;20546;-73
2022/11/17 05:31:16;;;;;;;0.10;0.10;;;;;;;;;;5090950;28;20977;-72
2022/11/17 05:33:42;;;;;;;0.10;0.10;;;;;;;;;;5089784;28;20126;-74
2022/11/17 05:36:08;;;;;;;0.85;0.68;;;;;;;;;;5090044;28;20020;-72
2022/11/17 05:38:34;;;;;;;0.10;0.10;;;;;;;;;;5090321;28;20071;-73
2022/11/17 05:41:00;;;;;;;0.10;0.10;;;;;;;;;;5106656;28;20031;-73
2022/11/17 05:43:26;;;;;;;0.10;0.10;;;;;;;;;;5105633;28;20027;-72
2022/11/17 05:45:52;;;;;;;0.10;0.10;;;;;;;;;;5096331;28;20061;-72
2022/11/17 05:48:18;;;;;;;0.10;0.10;;;;;;;;;;5088566;28;20115;-75
2022/11/17 05:50:44;;;;;;;0.10;0.10;;;;;;;;;;5089303;28;20012;-71
2022/11/17 05:53:10;;;;;;;0.10;0.10;;;;;;;;;;5089463;28;20028;-71
2022/11/17 05:55:36;;;;;;;0.10;0.10;;;;;;;;;;5089884;28;20091;-74
2022/11/17 05:58:04;;;;;;;0.10;0.10;;;;;;;;;;5086694;28;20135;-71
2022/11/17 06:00:30;;;;;;;0.10;0.10;;;;;;;;;;5089758;28;20024;-73
2022/11/17 06:02:58;;;;;;;0.10;0.10;;;;;;;;;;5087682;28;20028;-74
2022/11/17 06:05:26;;;;;;;2.88;2.67;;;;;;;;;;5099606;28;20016;-73
2022/11/17 06:07:58;;;;;;;0.10;0.10;;;;;;;;;;5095744;28;20028;-72
2022/11/17 06:10:25;;;;;;;0.10;0.10;;;;;;;;;;5089285;28;20023;-71
2022/11/17 06:12:51;;;;;;;0.10;0.10;;;;;;;;;;5099950;28;20594;-71
2022/11/17 06:15:17;;;;;;;0.10;0.10;;;;;;;;;;5092129;28;20042;-74
2022/11/17 06:17:46;;;;;;;0.10;0.10;;;;;;;;;;5107792;28;20542;-72
2022/11/17 06:20:16;;;;;;;0.10;0.10;;;;;;;;;;5108727;28;20031;-71
2022/11/17 06:22:42;;;;;;;0.10;0.10;;;;;;;;;;5095104;28;20061;-72
2022/11/17 06:25:08;;;;;;;0.15;0.15;;;;;;;;;;5099326;28;20020;-73
2022/11/17 06:27:35;;;;;;;0.10;0.10;;;;;;;;;;5105887;28;20036;-71
2022/11/17 06:30:02;;;;;;;0.10;0.10;;;;;;;;;;5097239;28;20357;-71
2022/11/17 06:32:28;;;;;;;0.10;0.10;;;;;;;;;;5093413;28;20056;-72
2022/11/17 06:34:54;;;;;;;0.10;0.10;;;;;;;;;;5091227;28;20495;-72
2022/11/17 06:37:20;;;;;;;0.10;0.10;;;;;;;;;;5093892;28;20043;-72
2022/11/17 06:39:45;;;;;;;0.10;0.10;;;;;;;;;;5094357;28;20032;-71
2022/11/17 06:42:11;;;;;;;0.10;0.10;;;;;;;;;;5095641;28;20023;-71
2022/11/17 06:44:38;;;;;;;0.10;0.10;;;;;;;;;;5096467;28;20106;-72
2022/11/17 06:47:04;;;;;;;0.10;0.10;;;;;;;;;;5103674;28;20078;-71
2022/11/17 06:49:29;;;;;;;0.10;0.10;;;;;;;;;;5095292;28;20107;-73
2022/11/17 06:51:56;;;;;;;0.10;0.10;;;;;;;;;;5090781;28;20028;-72
2022/11/17 06:54:22;;;;;;;0.10;0.10;;;;;;;;;;5102689;28;20149;-74
2022/11/17 06:56:49;;;;;;;0.10;0.10;;;;;;;;;;5092239;28;20111;-72
2022/11/17 06:59:16;;;;;;;0.88;0.88;;;;;;;;;;5096275;28;20036;-71
2022/11/17 07:01:42;;;;;;;0.10;0.10;;;;;;;;;;5107523;28;20016;-71
2022/11/17 07:04:08;;;;;;;0.10;0.10;;;;;;;;;;5100467;27;20790;-73
2022/11/17 07:06:37;;;;;;;0.10;0.10;;;;;;;;;;5097903;28;20057;-73
2022/11/17 07:09:03;;;;;;;0.10;0.10;;;;;;;;;;5089873;28;20443;-74
2022/11/17 07:11:29;;;;;;;0.10;0.10;;;;;;;;;;5096823;28;20024;-72
2022/11/17 07:13:56;;;;;;;0.10;0.10;;;;;;;;;;5096723;28;20028;-74
2022/11/17 07:16:22;;;;;;;0.10;0.10;;;;;;;;;;5089705;28;20556;-72
2022/11/17 07:18:47;;;;;;;0.10;0.10;;;;;;;;;;5098260;28;20067;-71
2022/11/17 07:21:13;;;;;;;0.10;0.10;;;;;;;;;;5098717;28;20082;-72
2022/11/17 07:23:40;;;;;;;0.10;0.10;;;;;;;;;;5096880;28;20024;-73
2022/11/17 07:26:06;;;;;;;0.10;0.10;;;;;;;;;;5094348;28;20016;-74
2022/11/17 07:28:32;;;;;;;0.20;0.20;;;;;;;;;;5098852;28;20124;-78
2022/11/17 07:31:02;;;;;;;0.15;0.15;;;;;;;;;;5100680;28;20028;-78
2022/11/17 07:33:28;;;;;;;0.10;0.10;;;;;;;;;;5091796;28;20458;-77
2022/11/17 07:35:54;;;;;;;0.13;0.13;;;;;;;;;;5095167;28;20106;-76
2022/11/17 07:38:21;;;;;;;0.20;0.20;;;;;;;;;;5113237;27;20044;-76
2022/11/17 07:40:46;;;;;;;0.55;0.55;;;;;;;;;;5090876;28;20020;-74
2022/11/17 07:43:12;;;;;;;0.13;0.13;;;;;;;;;;5089950;28;20026;-76
2022/11/17 07:45:38;;;;;;;1.10;1.00;;;;;;;;;;5099102;28;20027;-75
2022/11/17 07:48:05;;;;;;;1.70;1.65;;;;;;;;;;5105404;28;20639;-75
2022/11/17 07:50:31;;;;;;;0.20;0.20;;;;;;;;;;5091877;28;20035;-74
2022/11/17 07:52:57;;;;;;;0.10;0.10;;;;;;;;;;5090727;28;20016;-75
2022/11/17 07:55:23;;;;;;;0.20;0.20;;;;;;;;;;5092609;28;20026;-75
2022/11/17 07:57:57;;;;;;;0.15;0.15;;;;;;;;;;5091862;28;20479;-74
2022/11/17 08:00:23;;;;;;;0.10;0.10;;;;;;;;;;5090543;28;20058;-74
2022/11/17 08:02:49;;;;;;;0.20;0.20;;;;;;;;;;5094640;28;20387;-76
2022/11/17 08:05:16;;;;;;;0.52;0.52;;;;;;;;;;5093631;28;20024;-77
2022/11/17 08:07:45;;;;;;;0.20;0.20;;;;;;;;;;5089742;28;20062;-74
2022/11/17 08:10:12;;;;;;;0.10;0.10;;;;;;;;;;5098253;28;20530;-75
2022/11/17 08:12:38;;;;;;;0.10;0.10;;;;;;;;;;5093831;28;20024;-74
2022/11/17 08:15:04;;;;;;;0.30;0.30;;;;;;;;;;5101719;28;20020;-75
2022/11/17 08:17:30;;;;;;;0.20;0.20;;;;;;;;;;5111946;28;20164;-74
2022/11/17 08:19:56;;;;;;;0.20;0.20;;;;;;;;;;5111071;28;20479;-73
2022/11/17 08:22:22;;;;;;;0.22;0.22;;;;;;;;;;5109938;28;20023;-74
2022/11/17 08:24:48;;;;;;;0.65;0.55;;;;;;;;;;5102112;27;20554;-74
2022/11/17 08:27:14;;;;;;;0.20;0.20;;;;;;;;;;5094325;28;20110;-73
2022/11/17 08:29:39;;;;;;;0.20;0.20;;;;;;;;;;5107822;28;20074;-74
2022/11/17 08:32:05;;;;;;;0.15;0.15;;;;;;;;;;5099445;28;20020;-75
2022/11/17 08:34:31;;;;;;;0.20;0.20;;;;;;;;;;5100960;28;20045;-75
2022/11/17 08:36:57;;;;;;;0.30;0.30;;;;;;;;;;5102095;28;20059;-75
2022/11/17 08:39:23;;;;;;;0.10;0.10;;;;;;;;;;5096791;28;20035;-74
2022/11/17 08:41:50;;;;;;;0.20;0.20;;;;;;;;;;5109320;28;20043;-74
2022/11/17 08:44:15;;;;;;;0.45;0.40;;;;;;;;;;5109306;28;20019;-74
2022/11/17 08:46:41;;;;;;;0.30;0.30;;;;;;;;;;5109066;28;20065;-74
2022/11/17 08:49:07;;;;;;;6.13;5.63;;;;;;;;;;5109075;28;20039;-74
2022/11/17 08:51:33;;;;;;;0.10;0.10;;;;;;;;;;5107495;28;20028;-74
2022/11/17 08:53:59;;;;;;;0.20;0.20;;;;;;;;;;5108726;28;20020;-75
2022/11/17 08:56:25;;;;;;;0.20;0.20;;;;;;;;;;5108748;28;20027;-74
2022/11/17 08:58:50;;;;;;;0.22;0.22;;;;;;;;;;5107245;28;20509;-74
2022/11/17 09:01:16;;;;;;;0.20;0.20;;;;;;;;;;5107453;28;20032;-75
2022/11/17 09:03:43;;;;;;;0.20;0.20;;;;;;;;;;5108627;28;20111;-74
2022/11/17 09:06:09;;;;;;;0.20;0.20;;;;;;;;;;5108332;28;20055;-75
2022/11/17 09:08:35;;;;;;;1.00;1.00;;;;;;;;;;5108197;28;20496;-73
2022/11/17 09:11:08;;;;;;;0.20;0.20;;;;;;;;;;5108813;28;20030;-74
2022/11/17 09:13:34;;;;;;;0.20;0.20;;;;;;;;;;5109018;28;20360;-74
2022/11/17 09:16:04;;;;;;;0.20;0.20;;;;;;;;;;5110336;28;20035;-75
2022/11/17 09:18:30;;;;;;;0.20;0.20;;;;;;;;;;5110478;28;20047;-74
2022/11/17 09:20:59;;;;;;;0.10;0.10;;;;;;;;;;5109894;28;20027;-74
2022/11/17 09:23:25;;;;;;;;;;;;;;;;;;5110576;28;20020;-75
2022/11/17 09:25:51;;;;;;;0.20;0.20;;;;;;;;;;5110588;28;20019;-75
2022/11/17 09:28:17;;;;;;;0.20;0.20;;;;;;;;;;5117047;28;20039;-75
2022/11/17 09:30:42;;;;;;;0.20;0.20;;;;;;;;;;5120363;28;20163;-74
2022/11/17 09:33:08;;;;;;;0.20;0.20;;;;;;;;;;5119689;28;20487;-74
2022/11/17 09:35:34;;;;;;;0.20;0.20;;;;;;;;;;5120180;28;20027;-74
2022/11/17 09:38:00;;;;;;;0.20;0.20;;;;;;;;;;5111104;28;20059;-73
2022/11/17 09:40:26;;;;;;;0.20;0.20;;;;;;;;;;5110060;28;20028;-75
2022/11/17 09:42:53;;;;;;;0.20;0.20;;;;;;;;;;5109718;28;20187;-73
2022/11/17 09:45:27;;;;;;;0.20;0.20;;;;;;;;;;5109946;28;20462;-74
2022/11/17 09:47:56;;;;;;;0.20;0.20;;;;;;;;;;5109675;27;20031;-74
2022/11/17 09:50:30;;;;;;;0.20;0.20;;;;;;;;;;5109991;28;20031;-75
2022/11/17 09:53:15;;;;;;;0.15;0.15;;;;;;;;;;5109576;28;20088;-74
2022/11/17 09:55:42;;;;;;;0.20;0.20;;;;;;;;;;5100458;28;20069;-74
2022/11/17 09:58:18;;;;;;;0.20;0.20;;;;;;;;;;5098916;28;20043;-74
2022/11/17 10:00:47;;;;;;;0.20;0.20;;;;;;;;;;5101823;28;20035;-74
2022/11/17 10:03:33;;;;;;;0.20;0.20;;;;;;;;;;5099261;28;20055;-73
2022/11/17 10:06:02;;;;;;;0.20;0.20;;;;;;;;;;5096459;28;20028;-75
2022/11/17 10:08:35;;;;;;;0.47;0.47;;;;;;;;;;5091382;28;20028;-74
2022/11/17 10:11:30;;;;;;;0.20;0.20;;;;;;;;;;5102869;28;20016;-74
2022/11/17 10:13:48;;;;;;;0.20;0.20;;;;;;;;;;5094283;28;20758;-75
2022/11/17 10:16:14;;;;;;;0.10;0.10;;;;;;;;;;5104500;28;20016;-76
2022/11/17 10:18:40;;;;;;;0.20;0.20;;;;;;;;;;5094305;28;20035;-74
2022/11/17 10:21:08;;;;;;;0.20;0.20;;;;;;;;;;5109065;28;20037;-75
2022/11/17 10:23:43;;;;;;;0.10;0.10;;;;;;;;;;5109181;28;20015;-76
2022/11/17 10:26:11;;;;;;;0.20;0.20;;;;;;;;;;5094930;28;20012;-75
2022/11/17 10:28:37;;;;;;;0.13;0.13;;;;;;;;;;5099323;28;20028;-75
2022/11/17 10:31:09;;;;;;;0.20;0.20;;;;;;;;;;5109686;28;20031;-75
2022/11/17 10:33:39;;;;;;;0.17;0.17;;;;;;;;;;5109588;28;20044;-75
2022/11/17 10:36:07;;;;;;;0.20;0.20;;;;;;;;;;5109385;28;20038;-75
2022/11/17 10:38:32;;;;;;;0.20;0.20;;;;;;;;;;5101774;28;20036;-76
2022/11/17 10:40:59;;;;;;;2.47;2.25;;;;;;;;;;5095501;28;20039;-75
2022/11/17 10:43:26;;;;;;;0.20;0.20;;;;;;;;;;5090641;28;20026;-76
2022/11/17 10:45:54;;;;;;;0.20;0.20;;;;;;;;;;5092824;28;20028;-76
2022/11/17 10:48:32;;;;;;;0.20;0.20;;;;;;;;;;5093054;28;20395;-76
2022/11/17 10:51:03;;;;;;;0.30;0.30;;;;;;;;;;5091521;28;20044;-75
2022/11/17 10:53:31;;;;;;;0.20;0.20;;;;;;;;;;5091802;28;20085;-77
2022/11/17 10:55:59;;;;;;;0.20;0.20;;;;;;;;;;5092661;28;20028;-75
2022/11/17 10:58:29;;;;;;;0.20;0.20;;;;;;;;;;5092638;28;20028;-76
2022/11/17 11:01:00;;;;;;;0.20;0.20;;;;;;;;;;5100005;28;20116;-76
2022/11/17 11:03:30;;;;;;;0.28;0.28;;;;;;;;;;5094051;28;20032;-76
2022/11/17 11:05:57;;;;;;;0.20;0.20;;;;;;;;;;5099084;28;20103;-75
2022/11/17 11:08:24;;;;;;;0.20;0.20;;;;;;;;;;5097841;28;20115;-75
2022/11/17 11:10:51;;;;;;;0.20;0.20;;;;;;;;;;5098172;28;20391;-76
2022/11/17 11:13:35;;;;;;;0.30;0.30;;;;;;;;;;5100687;28;20065;-76
2022/11/17 11:16:01;;;;;;;0.20;0.20;;;;;;;;;;5111429;28;20344;-75
2022/11/17 11:18:28;;;;;;;0.45;0.45;;;;;;;;;;5108193;28;20088;-75
2022/11/17 11:21:04;;;;;;;8.38;3.60;;;;;;;;;;5100711;28;20024;-76
2022/11/17 11:23:39;;;;;;;0.20;0.20;;;;;;;;;;5102401;28;20344;-76
2022/11/17 11:26:29;;;;;;;0.20;0.20;;;;;;;;;;5100798;28;20073;-76
2022/11/17 11:29:04;;;;;;;0.20;0.20;;;;;;;;;;5100863;28;20059;-76
2022/11/17 11:31:35;;;;;;;0.20;0.20;;;;;;;;;;5088553;28;20028;-76
2022/11/17 11:34:16;;;;;;;0.20;0.20;;;;;;;;;;5089838;28;20097;-76
2022/11/17 11:36:43;;;;;;;0.20;0.20;;;;;;;;;;5098417;28;20028;-77
2022/11/17 11:39:19;;;;;;;0.20;0.20;;;;;;;;;;5111103;28;20043;-76
2022/11/17 11:41:45;;;;;;;0.63;0.63;;;;;;;;;;5097004;28;20409;-79
2022/11/17 11:44:14;;;;;;;0.20;0.20;;;;;;;;;;5099416;28;20027;-76
2022/11/17 11:46:59;;;;;;;0.20;0.20;;;;;;;;;;5098993;28;20503;-76
2022/11/17 11:49:38;;;;;;;0.13;0.13;;;;;;;;;;5102206;28;20032;-76
2022/11/17 11:52:03;;;;;;;;;;;;;;;;;;5093663;28;20077;-78
2022/11/17 11:54:37;;;;;;;0.30;0.30;;;;;;;;;;5097715;28;19908;-77
2022/11/17 11:57:03;;;;;;;0.20;0.20;;;;;;;;;;5097886;28;20052;-76
2022/11/17 11:59:48;;;;;;;0.20;0.20;;;;;;;;;;5094042;28;20063;-76
2022/11/17 12:02:23;;;;;;;0.88;0.60;;;;;;;;;;5101928;28;20050;-76
2022/11/17 12:05:09;;;;;;;0.20;0.20;;;;;;;;;;5108710;28;20024;-76
2022/11/17 12:07:41;;;;;;;6.55;0.77;;;;;;;;;;5087574;28;20067;-77
2022/11/17 12:10:14;;;;;;;2.08;0.82;;;;;;;;;;5092855;28;20385;-74
2022/11/17 12:12:43;;;;;;;0.28;0.28;;;;;;;;;;5091349;28;20411;-77
2022/11/17 12:15:09;;;;;;;0.20;0.20;;;;;;;;;;5100369;28;20115;-77
2022/11/17 12:17:35;;;;;;;0.85;0.85;;;;;;;;;;5101529;28;20652;-77
2022/11/17 12:20:02;;;;;;;0.15;0.15;;;;;;;;;;5102774;28;20483;-78
2022/11/17 12:22:27;;;;;;;0.20;0.20;;;;;;;;;;5100694;28;20038;-78
2022/11/17 12:24:57;;;;;;;0.20;0.20;;;;;;;;;;5097561;28;20020;-77
2022/11/17 12:27:32;;;;;;;0.20;0.20;;;;;;;;;;5090094;28;20077;-76
2022/11/17 12:29:58;;;;;;;0.20;0.20;;;;;;;;;;5093281;28;20043;-76
2022/11/17 12:32:42;;;;;;;0.32;0.32;;;;;;;;;;5089336;28;20032;-77
2022/11/17 12:35:25;;;;;;;0.20;0.20;;;;;;;;;;5088794;28;20092;-76
2022/11/17 12:38:17;;;;;;;0.30;0.30;;;;;;;;;;5095482;28;20107;-75
2022/11/17 12:40:45;;;;;;;0.10;0.10;;;;;;;;;;5078035;28;20058;-75
2022/11/17 12:43:13;;;;;;;0.20;0.20;;;;;;;;;;5094439;28;20039;-76
2022/11/17 12:45:54;;;;;;;0.30;0.30;;;;;;;;;;5100620;28;20074;-76
2022/11/17 12:48:24;;;;;;;0.20;0.20;;;;;;;;;;5095060;28;20425;-77
2022/11/17 12:51:09;;;;;;;0.70;0.63;;;;;;;;;;5094158;28;20047;-76
2022/11/17 12:53:34;;;;;;;0.30;0.30;;;;;;;;;;5099538;28;20090;-76
2022/11/17 12:56:06;;;;;;;0.30;0.30;;;;;;;;;;5092942;28;20028;-76
2022/11/17 12:58:32;;;;;;;0.38;0.38;;;;;;;;;;5088547;28;20248;-77
2022/11/17 13:01:16;;;;;;;0.20;0.20;;;;;;;;;;5102900;28;20523;-75
2022/11/17 13:03:53;;;;;;;0.20;0.20;;;;;;;;;;5097026;28;20028;-75
2022/11/17 13:06:19;;;;;;;0.38;0.38;;;;;;;;;;5092991;28;20058;-74
2022/11/17 13:09:06;;;;;;;1.15;0.77;;;;;;;;;;5100186;28;20031;-77
2022/11/17 13:11:32;;;;;;;0.20;0.20;;;;;;;;;;5094052;28;20479;-76
2022/11/17 13:14:07;;;;;;;0.30;0.30;;;;;;;;;;5088199;28;20020;-76
2022/11/17 13:16:33;;;;;;;0.10;0.10;;;;;;;;;;5085960;28;20078;-77
2022/11/17 13:18:59;;;;;;;0.20;0.20;;;;;;;;;;5097909;28;20031;-75
2022/11/17 13:21:25;;;;;;;0.20;0.20;;;;;;;;;;5107521;28;20023;-75
2022/11/17 13:23:51;;;;;;;0.20;0.20;;;;;;;;;;5094644;28;20035;-76
2022/11/17 13:26:21;;;;;;;0.30;0.30;;;;;;;;;;5086545;28;20048;-76
2022/11/17 13:28:48;;;;;;;0.47;0.47;;;;;;;;;;5084646;28;20085;-76
2022/11/17 13:31:18;;;;;;;0.10;0.10;;;;;;;;;;5084637;28;20024;-76
2022/11/17 13:33:59;;;;;;;1.35;0.63;;;;;;;;;;5084592;28;20101;-75
2022/11/17 13:36:26;;;;;;;0.47;0.30;;;;;;;;;;5085245;28;20039;-77
2022/11/17 13:38:53;;;;;;;0.20;0.20;;;;;;;;;;5084172;28;20066;-75
2022/11/17 13:41:20;;;;;;;0.20;0.20;;;;;;;;;;5083361;28;20028;-75
2022/11/17 13:43:47;;;;;;;0.30;0.30;;;;;;;;;;5085557;28;20057;-76
2022/11/17 13:46:13;;;;;;;1.45;0.45;;;;;;;;;;5084373;28;20391;-76
2022/11/17 13:48:40;;;;;;;0.20;0.20;;;;;;;;;;5085084;28;20028;-76
2022/11/17 13:51:16;;;;;;;1.00;0.40;;;;;;;;;;5084883;28;20024;-76
2022/11/17 13:53:43;;;;;;;0.50;0.40;;;;;;;;;;5087110;28;20471;-76
2022/11/17 13:56:23;;;;;;;0.20;0.20;;;;;;;;;;5087085;28;20023;-76
2022/11/17 13:58:48;;;;;;;;;;;;;;;;;;5086812;28;20093;-76
2022/11/17 14:01:19;;;;;;;0.43;0.43;;;;;;;;;;5086813;28;19911;-77
2022/11/17 14:03:45;;;;;;;0.20;0.20;;;;;;;;;;5084840;28;20031;-77
2022/11/17 14:06:12;;;;;;;0.50;0.50;;;;;;;;;;5086591;28;20036;-77
2022/11/17 14:08:38;;;;;;;1.27;0.65;;;;;;;;;;5086435;28;20040;-76
2022/11/17 14:11:10;;;;;;;2.50;0.95;;;;;;;;;;5087092;28;20503;-76
2022/11/17 14:13:37;;;;;;;0.20;0.20;;;;;;;;;;5087071;28;20020;-75
2022/11/17 14:16:03;;;;;;;0.25;0.25;;;;;;;;;;5087043;28;20029;-75
2022/11/17 14:18:32;;;;;;;2.17;0.60;;;;;;;;;;5091488;28;20040;-76
2022/11/17 14:21:16;;;;;;;0.28;0.28;;;;;;;;;;5098216;28;20565;-75
2022/11/17 14:23:42;;;;;;;0.20;0.20;;;;;;;;;;5107600;28;20040;-77
2022/11/17 14:26:22;;;;;;;0.30;0.30;;;;;;;;;;5097150;28;20032;-78
2022/11/17 14:28:48;;;;;;;0.20;0.20;;;;;;;;;;5101379;28;20032;-76
2022/11/17 14:31:14;;;;;;;0.20;0.20;;;;;;;;;;5099345;28;20387;-78
2022/11/17 14:33:40;;;;;;;0.20;0.20;;;;;;;;;;5099533;28;20042;-77
2022/11/17 14:36:09;;;;;;;0.20;0.20;;;;;;;;;;5092814;28;20024;-76
2022/11/17 14:38:35;;;;;;;0.20;0.20;;;;;;;;;;5103278;28;20135;-76
2022/11/17 14:41:00;;;;;;;0.95;0.57;;;;;;;;;;5099627;28;20364;-73
2022/11/17 14:43:26;;;;;;;0.85;0.85;;;;;;;;;;5095279;27;20501;-77
2022/11/17 14:45:52;;;;;;;0.17;0.17;;;;;;;;;;5100751;28;20363;-77
2022/11/17 14:48:19;;;;;;;0.20;0.20;;;;;;;;;;5110742;28;20026;-76
2022/11/17 14:50:45;;;;;;;0.20;0.20;;;;;;;;;;5099077;28;20028;-76
2022/11/17 14:53:11;;;;;;;0.20;0.20;;;;;;;;;;5092965;28;20056;-78
2022/11/17 14:55:36;;;;;;;0.20;0.20;;;;;;;;;;5096697;28;20063;-77
2022/11/17 14:58:03;;;;;;;0.30;0.30;;;;;;;;;;5098532;28;20089;-76
2022/11/17 15:00:29;;;;;;;0.20;0.20;;;;;;;;;;5088297;28;20085;-76
2022/11/17 15:02:55;;;;;;;0.20;0.20;;;;;;;;;;5099102;28;20520;-77
2022/11/17 15:05:21;;;;;;;0.20;0.20;;;;;;;;;;5097325;28;20020;-78
2022/11/17 15:07:47;;;;;;;0.15;0.15;;;;;;;;;;5090503;28;20059;-77
2022/11/17 15:10:13;;;;;;;0.20;0.20;;;;;;;;;;5094092;28;20020;-76
2022/11/17 15:12:39;;;;;;;3.67;0.90;;;;;;;;;;5104324;28;20046;-75
2022/11/17 15:15:06;;;;;;;1.42;0.55;;;;;;;;;;5109075;28;20118;-76
2022/11/17 15:17:31;;;;;;;0.30;0.30;;;;;;;;;;5089547;28;20028;-75
2022/11/17 15:19:57;;;;;;;1.58;0.63;;;;;;;;;;5088367;28;20119;-77
2022/11/17 15:22:23;;;;;;;0.40;0.40;;;;;;;;;;5087606;28;20036;-76